sensor_id;sensor_type;location;lat;lon;timestamp;P1;durP1;ratioP1;P2;durP2;ratioP2
3613;SDS011;1821;50.936;6.854;2023-07-29T00:00:08;2.80;;;1.70;;
3613;SDS011;1821;50.936;6.854;2023-07-29T00:00:50;3.28;;;1.65;;
3613;SDS011;1821;50.936;6.854;2023-07-29T00:01:35;2.83;;;1.50;;
3613;SDS011;1821;50.936;6.854;2023-07-29T00:02:17;2.50;;;1.67;;
3613;SDS011;1821;50.936;6.854;2023-07-29T00:02:59;2.53;;;1.75;;
3613;SDS011;1821;50.936;6.854;2023-07-29T00:03:41;2.65;;;1.75;;
3613;SDS011;1821;50.936;6.854;2023-07-29T00:04:23;4.00;;;2.10;;
3613;SDS011;1821;50.936;6.854;2023-07-29T00:05:05;3.70;;;1.80;;
3613;SDS011;1821;50.936;6.854;2023-07-29T00:05:47;3.70;;;1.60;;
3613;SDS011;1821;50.936;6.854;2023-07-29T00:06:29;3.22;;;2.20;;
3613;SDS011;1821;50.936;6.854;2023-07-29T00:07:11;3.80;;;2.20;;
3613;SDS011;1821;50.936;6.854;2023-07-29T00:07:53;2.50;;;1.45;;
3613;SDS011;1821;50.936;6.854;2023-07-29T00:08:35;3.30;;;1.58;;
3613;SDS011;1821;50.936;6.854;2023-07-29T00:09:17;2.20;;;1.50;;
3613;SDS011;1821;50.936;6.854;2023-07-29T00:09:59;3.63;;;1.75;;
3613;SDS011;1821;50.936;6.854;2023-07-29T00:10:41;2.90;;;1.70;;
3613;SDS011;1821;50.936;6.854;2023-07-29T00:11:24;2.50;;;1.50;;
3613;SDS011;1821;50.936;6.854;2023-07-29T00:12:05;3.20;;;1.45;;
3613;SDS011;1821;50.936;6.854;2023-07-29T00:12:48;4.03;;;1.55;;
3613;SDS011;1821;50.936;6.854;2023-07-29T00:13:30;2.60;;;1.70;;
3613;SDS011;1821;50.936;6.854;2023-07-29T00:14:14;3.58;;;1.80;;
3613;SDS011;1821;50.936;6.854;2023-07-29T00:14:56;3.00;;;1.75;;
3613;SDS011;1821;50.936;6.854;2023-07-29T00:15:38;4.05;;;2.00;;
3613;SDS011;1821;50.936;6.854;2023-07-29T00:16:20;3.60;;;1.80;;
3613;SDS011;1821;50.936;6.854;2023-07-29T00:17:05;2.85;;;1.50;;
3613;SDS011;1821;50.936;6.854;2023-07-29T00:17:49;3.70;;;1.90;;
3613;SDS011;1821;50.936;6.854;2023-07-29T00:18:31;2.70;;;1.77;;
3613;SDS011;1821;50.936;6.854;2023-07-29T00:19:14;3.20;;;2.00;;
3613;SDS011;1821;50.936;6.854;2023-07-29T00:19:55;2.28;;;1.60;;
3613;SDS011;1821;50.936;6.854;2023-07-29T00:20:37;2.38;;;1.80;;
3613;SDS011;1821;50.936;6.854;2023-07-29T00:21:20;2.60;;;1.90;;
3613;SDS011;1821;50.936;6.854;2023-07-29T00:22:04;2.40;;;1.73;;
3613;SDS011;1821;50.936;6.854;2023-07-29T00:22:46;2.60;;;1.80;;
3613;SDS011;1821;50.936;6.854;2023-07-29T00:23:30;2.50;;;2.00;;
3613;SDS011;1821;50.936;6.854;2023-07-29T00:24:12;2.60;;;1.70;;
3613;SDS011;1821;50.936;6.854;2023-07-29T00:24:54;2.75;;;1.80;;
3613;SDS011;1821;50.936;6.854;2023-07-29T00:25:41;2.95;;;2.10;;
3613;SDS011;1821;50.936;6.854;2023-07-29T00:26:24;3.08;;;1.80;;
3613;SDS011;1821;50.936;6.854;2023-07-29T00:27:11;3.03;;;1.60;;
3613;SDS011;1821;50.936;6.854;2023-07-29T00:27:55;2.83;;;1.70;;
3613;SDS011;1821;50.936;6.854;2023-07-29T00:28:40;2.85;;;1.98;;
3613;SDS011;1821;50.936;6.854;2023-07-29T00:29:22;3.20;;;1.90;;
3613;SDS011;1821;50.936;6.854;2023-07-29T00:30:04;2.70;;;1.70;;
3613;SDS011;1821;50.936;6.854;2023-07-29T00:30:46;2.90;;;1.90;;
3613;SDS011;1821;50.936;6.854;2023-07-29T00:31:28;2.78;;;1.80;;
3613;SDS011;1821;50.936;6.854;2023-07-29T00:32:10;2.88;;;1.70;;
3613;SDS011;1821;50.936;6.854;2023-07-29T00:32:52;2.70;;;1.90;;
3613;SDS011;1821;50.936;6.854;2023-07-29T00:33:34;2.30;;;1.60;;
3613;SDS011;1821;50.936;6.854;2023-07-29T00:34:16;2.40;;;1.60;;
3613;SDS011;1821;50.936;6.854;2023-07-29T00:35:01;2.50;;;1.65;;
3613;SDS011;1821;50.936;6.854;2023-07-29T00:35:43;4.07;;;1.77;;
3613;SDS011;1821;50.936;6.854;2023-07-29T00:36:25;6.22;;;1.88;;
3613;SDS011;1821;50.936;6.854;2023-07-29T00:37:09;3.60;;;2.10;;
3613;SDS011;1821;50.936;6.854;2023-07-29T00:37:54;3.50;;;2.00;;
3613;SDS011;1821;50.936;6.854;2023-07-29T00:38:36;2.88;;;2.00;;
3613;SDS011;1821;50.936;6.854;2023-07-29T00:39:20;2.40;;;1.80;;
3613;SDS011;1821;50.936;6.854;2023-07-29T00:40:13;3.20;;;1.85;;
3613;SDS011;1821;50.936;6.854;2023-07-29T00:40:58;3.00;;;1.83;;
3613;SDS011;1821;50.936;6.854;2023-07-29T00:41:42;2.80;;;1.90;;
3613;SDS011;1821;50.936;6.854;2023-07-29T00:42:24;3.10;;;1.90;;
3613;SDS011;1821;50.936;6.854;2023-07-29T00:43:06;3.70;;;2.10;;
3613;SDS011;1821;50.936;6.854;2023-07-29T00:43:48;4.85;;;2.15;;
3613;SDS011;1821;50.936;6.854;2023-07-29T00:44:30;3.58;;;1.88;;
3613;SDS011;1821;50.936;6.854;2023-07-29T00:45:13;3.20;;;1.90;;
3613;SDS011;1821;50.936;6.854;2023-07-29T00:45:55;3.00;;;1.98;;
3613;SDS011;1821;50.936;6.854;2023-07-29T00:46:39;2.53;;;1.90;;
3613;SDS011;1821;50.936;6.854;2023-07-29T00:47:23;2.42;;;1.77;;
3613;SDS011;1821;50.936;6.854;2023-07-29T00:48:07;3.15;;;2.25;;
3613;SDS011;1821;50.936;6.854;2023-07-29T00:48:49;2.70;;;1.90;;
3613;SDS011;1821;50.936;6.854;2023-07-29T00:49:31;2.30;;;1.73;;
3613;SDS011;1821;50.936;6.854;2023-07-29T00:50:15;3.00;;;1.80;;
3613;SDS011;1821;50.936;6.854;2023-07-29T00:50:57;3.50;;;1.90;;
3613;SDS011;1821;50.936;6.854;2023-07-29T00:51:39;3.33;;;2.22;;
3613;SDS011;1821;50.936;6.854;2023-07-29T00:52:21;3.50;;;2.10;;
3613;SDS011;1821;50.936;6.854;2023-07-29T00:53:06;2.30;;;1.83;;
3613;SDS011;1821;50.936;6.854;2023-07-29T00:53:48;2.70;;;2.00;;
3613;SDS011;1821;50.936;6.854;2023-07-29T00:54:30;2.42;;;1.80;;
3613;SDS011;1821;50.936;6.854;2023-07-29T00:55:14;3.60;;;1.80;;
3613;SDS011;1821;50.936;6.854;2023-07-29T00:55:57;2.90;;;1.80;;
3613;SDS011;1821;50.936;6.854;2023-07-29T00:56:39;2.97;;;1.80;;
3613;SDS011;1821;50.936;6.854;2023-07-29T00:57:21;3.00;;;2.05;;
3613;SDS011;1821;50.936;6.854;2023-07-29T00:58:06;2.50;;;1.77;;
3613;SDS011;1821;50.936;6.854;2023-07-29T00:58:49;3.80;;;2.03;;
3613;SDS011;1821;50.936;6.854;2023-07-29T00:59:33;5.40;;;2.40;;
3613;SDS011;1821;50.936;6.854;2023-07-29T01:00:17;3.10;;;1.80;;
3613;SDS011;1821;50.936;6.854;2023-07-29T01:01:01;2.65;;;1.90;;
3613;SDS011;1821;50.936;6.854;2023-07-29T01:01:43;2.85;;;1.90;;
3613;SDS011;1821;50.936;6.854;2023-07-29T01:02:26;3.00;;;2.00;;
3613;SDS011;1821;50.936;6.854;2023-07-29T01:03:08;2.65;;;2.08;;
3613;SDS011;1821;50.936;6.854;2023-07-29T01:03:50;5.45;;;2.00;;
3613;SDS011;1821;50.936;6.854;2023-07-29T01:04:33;4.93;;;1.95;;
3613;SDS011;1821;50.936;6.854;2023-07-29T01:05:15;4.13;;;2.30;;
3613;SDS011;1821;50.936;6.854;2023-07-29T01:06:01;3.42;;;1.98;;
3613;SDS011;1821;50.936;6.854;2023-07-29T01:08:38;4.18;;;2.40;;
3613;SDS011;1821;50.936;6.854;2023-07-29T01:09:20;2.90;;;2.20;;
3613;SDS011;1821;50.936;6.854;2023-07-29T01:10:15;3.50;;;1.90;;
3613;SDS011;1821;50.936;6.854;2023-07-29T01:11:08;3.33;;;2.03;;
3613;SDS011;1821;50.936;6.854;2023-07-29T01:12:08;2.90;;;1.80;;
3613;SDS011;1821;50.936;6.854;2023-07-29T01:14:02;2.92;;;2.20;;
3613;SDS011;1821;50.936;6.854;2023-07-29T01:15:50;2.80;;;1.85;;
3613;SDS011;1821;50.936;6.854;2023-07-29T01:16:39;2.63;;;1.80;;
3613;SDS011;1821;50.936;6.854;2023-07-29T01:17:36;3.80;;;1.90;;
3613;SDS011;1821;50.936;6.854;2023-07-29T01:18:25;5.20;;;2.15;;
3613;SDS011;1821;50.936;6.854;2023-07-29T01:19:14;5.10;;;2.30;;
3613;SDS011;1821;50.936;6.854;2023-07-29T01:20:19;3.78;;;2.22;;
3613;SDS011;1821;50.936;6.854;2023-07-29T01:21:04;4.30;;;2.10;;
3613;SDS011;1821;50.936;6.854;2023-07-29T01:21:49;3.38;;;1.95;;
3613;SDS011;1821;50.936;6.854;2023-07-29T01:22:35;2.83;;;2.10;;
3613;SDS011;1821;50.936;6.854;2023-07-29T01:23:24;3.10;;;2.10;;
3613;SDS011;1821;50.936;6.854;2023-07-29T01:24:07;3.28;;;2.25;;
3613;SDS011;1821;50.936;6.854;2023-07-29T01:24:49;3.85;;;2.10;;
3613;SDS011;1821;50.936;6.854;2023-07-29T01:25:31;5.10;;;2.20;;
3613;SDS011;1821;50.936;6.854;2023-07-29T01:26:15;5.45;;;2.20;;
3613;SDS011;1821;50.936;6.854;2023-07-29T01:26:57;4.25;;;2.20;;
3613;SDS011;1821;50.936;6.854;2023-07-29T01:27:42;3.20;;;2.30;;
3613;SDS011;1821;50.936;6.854;2023-07-29T01:28:26;3.83;;;2.10;;
3613;SDS011;1821;50.936;6.854;2023-07-29T01:29:09;5.20;;;1.92;;
3613;SDS011;1821;50.936;6.854;2023-07-29T01:29:51;4.60;;;1.95;;
3613;SDS011;1821;50.936;6.854;2023-07-29T01:30:36;3.20;;;1.90;;
3613;SDS011;1821;50.936;6.854;2023-07-29T01:31:31;3.40;;;2.20;;
3613;SDS011;1821;50.936;6.854;2023-07-29T01:32:23;2.90;;;2.30;;
3613;SDS011;1821;50.936;6.854;2023-07-29T01:33:26;3.33;;;2.40;;
3613;SDS011;1821;50.936;6.854;2023-07-29T01:34:22;3.60;;;2.10;;
3613;SDS011;1821;50.936;6.854;2023-07-29T01:36:21;3.78;;;2.20;;
3613;SDS011;1821;50.936;6.854;2023-07-29T01:37:07;4.55;;;2.20;;
3613;SDS011;1821;50.936;6.854;2023-07-29T01:37:56;4.68;;;2.45;;
3613;SDS011;1821;50.936;6.854;2023-07-29T01:38:43;4.28;;;2.28;;
3613;SDS011;1821;50.936;6.854;2023-07-29T01:39:26;3.90;;;2.30;;
3613;SDS011;1821;50.936;6.854;2023-07-29T01:40:13;4.20;;;2.08;;
3613;SDS011;1821;50.936;6.854;2023-07-29T01:40:55;3.45;;;1.90;;
3613;SDS011;1821;50.936;6.854;2023-07-29T01:41:38;2.75;;;1.98;;
3613;SDS011;1821;50.936;6.854;2023-07-29T01:42:21;4.20;;;2.20;;
3613;SDS011;1821;50.936;6.854;2023-07-29T01:43:03;3.83;;;2.40;;
3613;SDS011;1821;50.936;6.854;2023-07-29T01:43:46;2.92;;;2.20;;
3613;SDS011;1821;50.936;6.854;2023-07-29T01:44:30;3.80;;;2.60;;
3613;SDS011;1821;50.936;6.854;2023-07-29T01:45:15;2.80;;;2.30;;
3613;SDS011;1821;50.936;6.854;2023-07-29T01:46:02;3.80;;;2.40;;
3613;SDS011;1821;50.936;6.854;2023-07-29T01:46:44;3.03;;;2.30;;
3613;SDS011;1821;50.936;6.854;2023-07-29T01:47:26;3.65;;;2.40;;
3613;SDS011;1821;50.936;6.854;2023-07-29T01:48:08;5.03;;;2.40;;
3613;SDS011;1821;50.936;6.854;2023-07-29T01:48:50;4.93;;;2.20;;
3613;SDS011;1821;50.936;6.854;2023-07-29T01:49:32;3.95;;;2.50;;
3613;SDS011;1821;50.936;6.854;2023-07-29T01:50:14;4.55;;;2.70;;
3613;SDS011;1821;50.936;6.854;2023-07-29T01:50:56;4.07;;;2.40;;
3613;SDS011;1821;50.936;6.854;2023-07-29T01:51:37;3.88;;;2.60;;
3613;SDS011;1821;50.936;6.854;2023-07-29T01:52:19;3.20;;;2.50;;
3613;SDS011;1821;50.936;6.854;2023-07-29T01:53:01;4.30;;;2.58;;
3613;SDS011;1821;50.936;6.854;2023-07-29T01:53:43;3.55;;;2.33;;
3613;SDS011;1821;50.936;6.854;2023-07-29T01:54:25;3.63;;;2.60;;
3613;SDS011;1821;50.936;6.854;2023-07-29T01:55:10;3.47;;;2.20;;
3613;SDS011;1821;50.936;6.854;2023-07-29T01:55:51;5.40;;;2.80;;
3613;SDS011;1821;50.936;6.854;2023-07-29T01:56:33;7.88;;;3.20;;
3613;SDS011;1821;50.936;6.854;2023-07-29T01:57:16;6.00;;;3.00;;
3613;SDS011;1821;50.936;6.854;2023-07-29T01:57:58;4.57;;;3.17;;
3613;SDS011;1821;50.936;6.854;2023-07-29T01:58:40;6.72;;;3.47;;
3613;SDS011;1821;50.936;6.854;2023-07-29T01:59:22;7.10;;;2.90;;
3613;SDS011;1821;50.936;6.854;2023-07-29T02:00:04;5.88;;;3.00;;
3613;SDS011;1821;50.936;6.854;2023-07-29T02:00:47;4.47;;;3.10;;
3613;SDS011;1821;50.936;6.854;2023-07-29T02:01:29;6.13;;;3.63;;
3613;SDS011;1821;50.936;6.854;2023-07-29T02:02:14;5.70;;;3.40;;
3613;SDS011;1821;50.936;6.854;2023-07-29T02:02:56;4.72;;;3.08;;
3613;SDS011;1821;50.936;6.854;2023-07-29T02:03:38;5.78;;;3.10;;
3613;SDS011;1821;50.936;6.854;2023-07-29T02:04:20;4.90;;;3.30;;
3613;SDS011;1821;50.936;6.854;2023-07-29T02:05:05;5.57;;;3.15;;
3613;SDS011;1821;50.936;6.854;2023-07-29T02:05:47;3.47;;;2.60;;
3613;SDS011;1821;50.936;6.854;2023-07-29T02:06:31;4.10;;;2.40;;
3613;SDS011;1821;50.936;6.854;2023-07-29T02:07:13;4.38;;;2.70;;
3613;SDS011;1821;50.936;6.854;2023-07-29T02:07:58;3.40;;;2.50;;
3613;SDS011;1821;50.936;6.854;2023-07-29T02:08:40;5.80;;;2.70;;
3613;SDS011;1821;50.936;6.854;2023-07-29T02:09:22;3.88;;;2.40;;
3613;SDS011;1821;50.936;6.854;2023-07-29T02:10:04;3.50;;;2.65;;
3613;SDS011;1821;50.936;6.854;2023-07-29T02:10:46;3.03;;;2.50;;
3613;SDS011;1821;50.936;6.854;2023-07-29T02:11:30;4.30;;;2.25;;
3613;SDS011;1821;50.936;6.854;2023-07-29T02:12:12;4.70;;;2.30;;
3613;SDS011;1821;50.936;6.854;2023-07-29T02:12:56;4.20;;;2.72;;
3613;SDS011;1821;50.936;6.854;2023-07-29T02:13:38;4.82;;;2.80;;
3613;SDS011;1821;50.936;6.854;2023-07-29T02:14:20;5.10;;;2.35;;
3613;SDS011;1821;50.936;6.854;2023-07-29T02:15:05;4.00;;;2.80;;
3613;SDS011;1821;50.936;6.854;2023-07-29T02:15:47;5.50;;;2.83;;
3613;SDS011;1821;50.936;6.854;2023-07-29T02:16:32;4.25;;;2.50;;
3613;SDS011;1821;50.936;6.854;2023-07-29T02:17:16;4.60;;;2.90;;
3613;SDS011;1821;50.936;6.854;2023-07-29T02:17:58;4.93;;;2.65;;
3613;SDS011;1821;50.936;6.854;2023-07-29T02:18:40;3.38;;;2.40;;
3613;SDS011;1821;50.936;6.854;2023-07-29T02:19:24;3.55;;;2.15;;
3613;SDS011;1821;50.936;6.854;2023-07-29T02:20:09;3.40;;;2.00;;
3613;SDS011;1821;50.936;6.854;2023-07-29T02:20:52;3.17;;;2.33;;
3613;SDS011;1821;50.936;6.854;2023-07-29T02:21:33;4.00;;;2.22;;
3613;SDS011;1821;50.936;6.854;2023-07-29T02:22:16;4.57;;;2.20;;
3613;SDS011;1821;50.936;6.854;2023-07-29T02:22:58;4.72;;;2.08;;
3613;SDS011;1821;50.936;6.854;2023-07-29T02:23:42;3.53;;;1.90;;
3613;SDS011;1821;50.936;6.854;2023-07-29T02:24:24;2.90;;;1.90;;
3613;SDS011;1821;50.936;6.854;2023-07-29T02:25:09;2.60;;;1.90;;
3613;SDS011;1821;50.936;6.854;2023-07-29T02:25:51;2.90;;;2.00;;
3613;SDS011;1821;50.936;6.854;2023-07-29T02:26:35;4.20;;;2.00;;
3613;SDS011;1821;50.936;6.854;2023-07-29T02:27:19;3.47;;;2.30;;
3613;SDS011;1821;50.936;6.854;2023-07-29T02:28:04;2.80;;;2.10;;
3613;SDS011;1821;50.936;6.854;2023-07-29T02:28:46;3.50;;;1.98;;
3613;SDS011;1821;50.936;6.854;2023-07-29T02:29:28;2.95;;;1.83;;
3613;SDS011;1821;50.936;6.854;2023-07-29T02:30:14;2.70;;;2.00;;
3613;SDS011;1821;50.936;6.854;2023-07-29T02:31:57;3.67;;;2.10;;
3613;SDS011;1821;50.936;6.854;2023-07-29T02:32:39;2.70;;;2.08;;
3613;SDS011;1821;50.936;6.854;2023-07-29T02:33:21;2.80;;;1.90;;
3613;SDS011;1821;50.936;6.854;2023-07-29T02:34:03;3.75;;;2.00;;
3613;SDS011;1821;50.936;6.854;2023-07-29T02:34:45;3.15;;;1.60;;
3613;SDS011;1821;50.936;6.854;2023-07-29T02:35:27;3.30;;;1.80;;
3613;SDS011;1821;50.936;6.854;2023-07-29T02:36:11;5.97;;;2.00;;
3613;SDS011;1821;50.936;6.854;2023-07-29T02:36:54;7.03;;;1.90;;
3613;SDS011;1821;50.936;6.854;2023-07-29T02:37:36;2.70;;;1.83;;
3613;SDS011;1821;50.936;6.854;2023-07-29T02:38:18;3.80;;;1.90;;
3613;SDS011;1821;50.936;6.854;2023-07-29T02:39:00;2.97;;;1.95;;
3613;SDS011;1821;50.936;6.854;2023-07-29T02:39:44;3.30;;;1.90;;
3613;SDS011;1821;50.936;6.854;2023-07-29T02:40:26;3.80;;;2.10;;
3613;SDS011;1821;50.936;6.854;2023-07-29T02:41:09;4.28;;;2.50;;
3613;SDS011;1821;50.936;6.854;2023-07-29T02:41:53;3.22;;;2.30;;
3613;SDS011;1821;50.936;6.854;2023-07-29T02:42:37;3.22;;;2.13;;
3613;SDS011;1821;50.936;6.854;2023-07-29T02:43:19;3.40;;;2.10;;
3613;SDS011;1821;50.936;6.854;2023-07-29T02:44:01;3.40;;;2.10;;
3613;SDS011;1821;50.936;6.854;2023-07-29T02:44:44;2.60;;;2.10;;
3613;SDS011;1821;50.936;6.854;2023-07-29T02:45:28;2.85;;;2.10;;
3613;SDS011;1821;50.936;6.854;2023-07-29T02:46:13;3.60;;;2.10;;
3613;SDS011;1821;50.936;6.854;2023-07-29T02:46:55;2.80;;;2.00;;
3613;SDS011;1821;50.936;6.854;2023-07-29T02:47:37;2.50;;;1.83;;
3613;SDS011;1821;50.936;6.854;2023-07-29T02:48:19;2.90;;;2.05;;
3613;SDS011;1821;50.936;6.854;2023-07-29T02:49:04;2.45;;;1.90;;
3613;SDS011;1821;50.936;6.854;2023-07-29T02:49:46;3.30;;;2.10;;
3613;SDS011;1821;50.936;6.854;2023-07-29T02:50:30;4.05;;;1.90;;
3613;SDS011;1821;50.936;6.854;2023-07-29T02:51:15;3.33;;;1.70;;
3613;SDS011;1821;50.936;6.854;2023-07-29T02:51:59;2.50;;;1.63;;
3613;SDS011;1821;50.936;6.854;2023-07-29T02:52:41;2.70;;;1.70;;
3613;SDS011;1821;50.936;6.854;2023-07-29T02:53:23;4.10;;;1.70;;
3613;SDS011;1821;50.936;6.854;2023-07-29T02:54:05;2.67;;;1.70;;
3613;SDS011;1821;50.936;6.854;2023-07-29T02:54:46;2.50;;;1.65;;
3613;SDS011;1821;50.936;6.854;2023-07-29T02:55:29;2.70;;;1.80;;
3613;SDS011;1821;50.936;6.854;2023-07-29T02:56:10;2.78;;;1.60;;
3613;SDS011;1821;50.936;6.854;2023-07-29T02:56:53;4.60;;;2.00;;
3613;SDS011;1821;50.936;6.854;2023-07-29T02:57:35;3.60;;;2.20;;
3613;SDS011;1821;50.936;6.854;2023-07-29T02:58:17;2.63;;;1.70;;
3613;SDS011;1821;50.936;6.854;2023-07-29T02:58:59;2.55;;;1.60;;
3613;SDS011;1821;50.936;6.854;2023-07-29T02:59:41;5.00;;;1.80;;
3613;SDS011;1821;50.936;6.854;2023-07-29T03:00:23;5.55;;;1.80;;
3613;SDS011;1821;50.936;6.854;2023-07-29T03:01:05;4.85;;;1.70;;
3613;SDS011;1821;50.936;6.854;2023-07-29T03:01:48;3.47;;;1.80;;
3613;SDS011;1821;50.936;6.854;2023-07-29T03:02:30;4.80;;;1.60;;
3613;SDS011;1821;50.936;6.854;2023-07-29T03:03:14;4.50;;;1.70;;
3613;SDS011;1821;50.936;6.854;2023-07-29T03:03:56;3.70;;;1.70;;
3613;SDS011;1821;50.936;6.854;2023-07-29T03:04:41;3.30;;;1.92;;
3613;SDS011;1821;50.936;6.854;2023-07-29T03:05:23;3.50;;;1.80;;
3613;SDS011;1821;50.936;6.854;2023-07-29T03:06:06;3.70;;;1.50;;
3613;SDS011;1821;50.936;6.854;2023-07-29T03:06:49;2.58;;;1.60;;
3613;SDS011;1821;50.936;6.854;2023-07-29T03:07:31;3.90;;;2.00;;
3613;SDS011;1821;50.936;6.854;2023-07-29T03:08:15;3.20;;;1.77;;
3613;SDS011;1821;50.936;6.854;2023-07-29T03:08:57;3.60;;;1.70;;
3613;SDS011;1821;50.936;6.854;2023-07-29T03:09:39;2.58;;;1.60;;
3613;SDS011;1821;50.936;6.854;2023-07-29T03:10:23;3.50;;;1.80;;
3613;SDS011;1821;50.936;6.854;2023-07-29T03:11:12;3.53;;;1.98;;
3613;SDS011;1821;50.936;6.854;2023-07-29T03:11:55;3.40;;;2.00;;
3613;SDS011;1821;50.936;6.854;2023-07-29T03:12:38;5.10;;;1.70;;
3613;SDS011;1821;50.936;6.854;2023-07-29T03:13:19;4.63;;;1.70;;
3613;SDS011;1821;50.936;6.854;2023-07-29T03:14:04;3.40;;;1.70;;
3613;SDS011;1821;50.936;6.854;2023-07-29T03:14:47;3.50;;;1.52;;
3613;SDS011;1821;50.936;6.854;2023-07-29T03:15:30;3.88;;;1.55;;
3613;SDS011;1821;50.936;6.854;2023-07-29T03:16:15;3.08;;;1.88;;
3613;SDS011;1821;50.936;6.854;2023-07-29T03:17:01;3.10;;;1.88;;
3613;SDS011;1821;50.936;6.854;2023-07-29T03:17:45;3.80;;;1.60;;
3613;SDS011;1821;50.936;6.854;2023-07-29T03:18:27;3.10;;;1.60;;
3613;SDS011;1821;50.936;6.854;2023-07-29T03:19:09;3.20;;;1.60;;
3613;SDS011;1821;50.936;6.854;2023-07-29T03:19:54;3.85;;;1.73;;
3613;SDS011;1821;50.936;6.854;2023-07-29T03:20:36;2.60;;;1.67;;
3613;SDS011;1821;50.936;6.854;2023-07-29T03:21:20;5.40;;;1.65;;
3613;SDS011;1821;50.936;6.854;2023-07-29T03:22:04;3.90;;;1.80;;
3613;SDS011;1821;50.936;6.854;2023-07-29T03:22:46;3.30;;;1.60;;
3613;SDS011;1821;50.936;6.854;2023-07-29T03:23:28;3.38;;;1.60;;
3613;SDS011;1821;50.936;6.854;2023-07-29T03:24:11;3.50;;;1.70;;
3613;SDS011;1821;50.936;6.854;2023-07-29T03:24:53;3.97;;;1.80;;
3613;SDS011;1821;50.936;6.854;2023-07-29T03:25:35;3.10;;;1.60;;
3613;SDS011;1821;50.936;6.854;2023-07-29T03:26:19;3.50;;;1.80;;
3613;SDS011;1821;50.936;6.854;2023-07-29T03:27:01;3.90;;;1.70;;
3613;SDS011;1821;50.936;6.854;2023-07-29T03:27:43;3.50;;;1.65;;
3613;SDS011;1821;50.936;6.854;2023-07-29T03:28:25;2.92;;;1.50;;
3613;SDS011;1821;50.936;6.854;2023-07-29T03:29:09;3.03;;;1.80;;
3613;SDS011;1821;50.936;6.854;2023-07-29T03:29:50;3.05;;;2.05;;
3613;SDS011;1821;50.936;6.854;2023-07-29T03:30:32;3.90;;;1.70;;
3613;SDS011;1821;50.936;6.854;2023-07-29T03:31:14;3.83;;;1.80;;
3613;SDS011;1821;50.936;6.854;2023-07-29T03:31:56;2.60;;;1.70;;
3613;SDS011;1821;50.936;6.854;2023-07-29T03:32:43;3.60;;;1.70;;
3613;SDS011;1821;50.936;6.854;2023-07-29T03:33:26;3.85;;;2.08;;
3613;SDS011;1821;50.936;6.854;2023-07-29T03:34:08;3.30;;;1.90;;
3613;SDS011;1821;50.936;6.854;2023-07-29T03:34:52;4.93;;;1.90;;
3613;SDS011;1821;50.936;6.854;2023-07-29T03:35:34;3.00;;;1.90;;
3613;SDS011;1821;50.936;6.854;2023-07-29T03:36:16;3.00;;;1.60;;
3613;SDS011;1821;50.936;6.854;2023-07-29T03:36:58;2.72;;;1.50;;
3613;SDS011;1821;50.936;6.854;2023-07-29T03:37:42;2.80;;;1.70;;
3613;SDS011;1821;50.936;6.854;2023-07-29T03:38:24;3.30;;;1.92;;
3613;SDS011;1821;50.936;6.854;2023-07-29T03:39:06;4.18;;;2.20;;
3613;SDS011;1821;50.936;6.854;2023-07-29T03:39:49;3.75;;;1.73;;
3613;SDS011;1821;50.936;6.854;2023-07-29T03:40:33;3.60;;;1.85;;
3613;SDS011;1821;50.936;6.854;2023-07-29T03:41:15;3.60;;;1.80;;
3613;SDS011;1821;50.936;6.854;2023-07-29T03:41:59;2.90;;;1.60;;
3613;SDS011;1821;50.936;6.854;2023-07-29T03:42:41;3.00;;;1.80;;
3613;SDS011;1821;50.936;6.854;2023-07-29T03:43:25;3.72;;;1.98;;
3613;SDS011;1821;50.936;6.854;2023-07-29T03:44:09;5.20;;;2.00;;
3613;SDS011;1821;50.936;6.854;2023-07-29T03:44:51;4.60;;;1.90;;
3613;SDS011;1821;50.936;6.854;2023-07-29T03:45:33;5.30;;;1.80;;
3613;SDS011;1821;50.936;6.854;2023-07-29T03:46:16;5.60;;;1.73;;
3613;SDS011;1821;50.936;6.854;2023-07-29T03:47:01;3.20;;;1.88;;
3613;SDS011;1821;50.936;6.854;2023-07-29T03:47:43;4.22;;;1.92;;
3613;SDS011;1821;50.936;6.854;2023-07-29T03:48:24;3.28;;;1.80;;
3613;SDS011;1821;50.936;6.854;2023-07-29T03:49:07;3.03;;;1.90;;
3613;SDS011;1821;50.936;6.854;2023-07-29T03:49:49;4.90;;;2.03;;
3613;SDS011;1821;50.936;6.854;2023-07-29T03:50:32;2.80;;;1.85;;
3613;SDS011;1821;50.936;6.854;2023-07-29T03:51:15;3.40;;;1.70;;
3613;SDS011;1821;50.936;6.854;2023-07-29T03:51:57;4.20;;;1.95;;
3613;SDS011;1821;50.936;6.854;2023-07-29T03:52:39;4.30;;;1.80;;
3613;SDS011;1821;50.936;6.854;2023-07-29T03:53:21;4.60;;;1.70;;
3613;SDS011;1821;50.936;6.854;2023-07-29T03:54:03;5.40;;;1.90;;
3613;SDS011;1821;50.936;6.854;2023-07-29T03:54:45;3.30;;;1.95;;
3613;SDS011;1821;50.936;6.854;2023-07-29T03:55:30;3.65;;;1.98;;
3613;SDS011;1821;50.936;6.854;2023-07-29T03:56:12;3.00;;;1.70;;
3613;SDS011;1821;50.936;6.854;2023-07-29T03:56:54;4.22;;;1.80;;
3613;SDS011;1821;50.936;6.854;2023-07-29T03:57:36;3.17;;;1.70;;
3613;SDS011;1821;50.936;6.854;2023-07-29T03:58:20;2.67;;;1.73;;
3613;SDS011;1821;50.936;6.854;2023-07-29T03:59:04;5.00;;;2.20;;
3613;SDS011;1821;50.936;6.854;2023-07-29T03:59:49;3.60;;;1.90;;
3613;SDS011;1821;50.936;6.854;2023-07-29T04:00:31;3.20;;;1.80;;
3613;SDS011;1821;50.936;6.854;2023-07-29T04:01:15;3.05;;;1.73;;
3613;SDS011;1821;50.936;6.854;2023-07-29T04:01:57;4.00;;;2.20;;
3613;SDS011;1821;50.936;6.854;2023-07-29T04:02:39;2.67;;;2.00;;
3613;SDS011;1821;50.936;6.854;2023-07-29T04:03:22;3.90;;;2.00;;
3613;SDS011;1821;50.936;6.854;2023-07-29T04:04:04;4.13;;;2.38;;
3613;SDS011;1821;50.936;6.854;2023-07-29T04:04:46;3.40;;;2.10;;
3613;SDS011;1821;50.936;6.854;2023-07-29T04:05:29;3.42;;;2.13;;
3613;SDS011;1821;50.936;6.854;2023-07-29T04:06:11;3.03;;;1.80;;
3613;SDS011;1821;50.936;6.854;2023-07-29T04:06:54;3.20;;;2.10;;
3613;SDS011;1821;50.936;6.854;2023-07-29T04:07:36;3.40;;;2.00;;
3613;SDS011;1821;50.936;6.854;2023-07-29T04:08:18;4.03;;;2.25;;
3613;SDS011;1821;50.936;6.854;2023-07-29T04:09:00;3.80;;;2.00;;
3613;SDS011;1821;50.936;6.854;2023-07-29T04:09:44;2.67;;;1.80;;
3613;SDS011;1821;50.936;6.854;2023-07-29T04:10:27;5.00;;;2.30;;
3613;SDS011;1821;50.936;6.854;2023-07-29T04:11:09;3.35;;;1.98;;
3613;SDS011;1821;50.936;6.854;2023-07-29T04:11:51;3.40;;;2.00;;
3613;SDS011;1821;50.936;6.854;2023-07-29T04:12:35;3.40;;;1.92;;
3613;SDS011;1821;50.936;6.854;2023-07-29T04:13:19;3.35;;;2.05;;
3613;SDS011;1821;50.936;6.854;2023-07-29T04:14:01;3.63;;;2.00;;
3613;SDS011;1821;50.936;6.854;2023-07-29T04:14:43;3.40;;;2.20;;
3613;SDS011;1821;50.936;6.854;2023-07-29T04:15:25;3.55;;;1.83;;
3613;SDS011;1821;50.936;6.854;2023-07-29T04:16:09;3.40;;;2.00;;
3613;SDS011;1821;50.936;6.854;2023-07-29T04:16:51;2.90;;;2.10;;
3613;SDS011;1821;50.936;6.854;2023-07-29T04:17:33;3.40;;;2.40;;
3613;SDS011;1821;50.936;6.854;2023-07-29T04:18:15;3.60;;;2.00;;
3613;SDS011;1821;50.936;6.854;2023-07-29T04:18:57;3.83;;;2.13;;
3613;SDS011;1821;50.936;6.854;2023-07-29T04:19:39;4.38;;;2.28;;
3613;SDS011;1821;50.936;6.854;2023-07-29T04:20:21;3.20;;;2.00;;
3613;SDS011;1821;50.936;6.854;2023-07-29T04:21:03;3.03;;;1.98;;
3613;SDS011;1821;50.936;6.854;2023-07-29T04:21:45;4.30;;;2.20;;
3613;SDS011;1821;50.936;6.854;2023-07-29T04:22:27;3.85;;;1.92;;
3613;SDS011;1821;50.936;6.854;2023-07-29T04:23:09;3.90;;;2.00;;
3613;SDS011;1821;50.936;6.854;2023-07-29T04:23:51;2.85;;;2.10;;
3613;SDS011;1821;50.936;6.854;2023-07-29T04:24:33;3.60;;;1.90;;
3613;SDS011;1821;50.936;6.854;2023-07-29T04:25:15;3.25;;;2.10;;
3613;SDS011;1821;50.936;6.854;2023-07-29T04:25:59;4.10;;;2.47;;
3613;SDS011;1821;50.936;6.854;2023-07-29T04:26:41;4.05;;;2.30;;
3613;SDS011;1821;50.936;6.854;2023-07-29T04:27:23;2.80;;;1.98;;
3613;SDS011;1821;50.936;6.854;2023-07-29T04:28:06;3.90;;;2.53;;
3613;SDS011;1821;50.936;6.854;2023-07-29T04:28:48;6.80;;;2.47;;
3613;SDS011;1821;50.936;6.854;2023-07-29T04:29:30;5.10;;;2.40;;
3613;SDS011;1821;50.936;6.854;2023-07-29T04:30:12;2.97;;;2.40;;
3613;SDS011;1821;50.936;6.854;2023-07-29T04:30:56;3.20;;;2.17;;
3613;SDS011;1821;50.936;6.854;2023-07-29T04:31:38;3.35;;;2.20;;
3613;SDS011;1821;50.936;6.854;2023-07-29T04:32:20;3.40;;;2.40;;
3613;SDS011;1821;50.936;6.854;2023-07-29T04:33:02;4.20;;;2.58;;
3613;SDS011;1821;50.936;6.854;2023-07-29T04:33:45;3.20;;;2.10;;
3613;SDS011;1821;50.936;6.854;2023-07-29T04:34:27;2.70;;;2.13;;
3613;SDS011;1821;50.936;6.854;2023-07-29T04:35:09;3.70;;;2.70;;